createdAt,value
2022-09-24T05:01:25.646Z,17.12
2022-09-24T05:03:52.248Z,17.10
2022-09-24T05:06:18.912Z,17.43
2022-09-24T05:08:45.452Z,17.15
2022-09-24T05:11:13.162Z,17.14
2022-09-24T05:13:39.684Z,17.12
2022-09-24T05:16:06.464Z,17.14
2022-09-24T05:18:33.027Z,17.13
2022-09-24T05:20:59.637Z,17.16
2022-09-24T05:23:26.090Z,17.49
2022-09-24T05:26:10.954Z,17.19
2022-09-24T05:28:38.281Z,17.18
2022-09-24T05:31:04.917Z,17.16
2022-09-24T05:33:31.564Z,17.16
2022-09-24T05:35:58.154Z,17.17
2022-09-24T05:38:24.689Z,17.50
2022-09-24T05:40:51.321Z,17.26
2022-09-24T05:43:21.582Z,17.31
2022-09-24T05:45:50.180Z,17.38
2022-09-24T05:48:16.976Z,17.47
2022-09-24T05:50:43.586Z,17.55
2022-09-24T05:53:10.496Z,17.95
2022-09-24T05:55:36.982Z,17.80
2022-09-24T05:58:09.378Z,17.88
2022-09-24T06:00:36.392Z,17.96
2022-09-24T06:03:11.068Z,18.08
2022-09-24T06:05:37.644Z,18.12
2022-09-24T06:08:04.707Z,18.50
2022-09-24T06:10:31.656Z,18.34
2022-09-24T06:12:58.617Z,18.37
2022-09-24T06:15:27.268Z,18.42
2022-09-24T06:17:54.931Z,18.46
2022-09-24T06:20:22.424Z,18.47
2022-09-24T06:22:49.356Z,18.47
2022-09-24T06:25:15.999Z,18.47
2022-09-24T06:27:42.532Z,18.48
2022-09-24T06:30:09.215Z,18.81
2022-09-24T06:32:35.691Z,18.56
2022-09-24T06:35:02.231Z,18.53
2022-09-24T06:37:28.707Z,18.50
2022-09-24T06:39:55.408Z,18.46
2022-09-24T06:42:21.942Z,18.43
2022-09-24T06:44:48.472Z,18.76
2022-09-24T06:47:15.080Z,18.45
2022-09-24T06:49:41.761Z,18.76
2022-09-24T06:52:08.341Z,18.42
2022-09-24T06:54:34.759Z,18.70
2022-09-24T06:57:01.599Z,18.33
2022-09-24T06:59:28.505Z,18.23
2022-09-24T07:01:55.093Z,18.16
2022-09-24T07:04:21.705Z,18.10
2022-09-24T07:07:06.949Z,18.07
2022-09-24T07:09:33.717Z,18.01
2022-09-24T07:12:04.824Z,17.95
2022-09-24T07:14:31.310Z,17.92
2022-09-24T07:16:57.849Z,17.90
2022-09-24T07:19:24.309Z,17.89
2022-09-24T07:21:50.897Z,17.85
2022-09-24T07:24:17.340Z,18.18
2022-09-24T07:26:43.831Z,17.86
2022-09-24T07:29:10.377Z,17.83
2022-09-24T07:31:37.401Z,18.14
2022-09-24T07:34:07.263Z,17.91
2022-09-24T07:36:33.776Z,17.85
2022-09-24T07:39:01.502Z,17.87
2022-09-24T07:41:28.013Z,17.87
2022-09-24T07:43:56.173Z,17.94
2022-09-24T07:46:23.934Z,17.95
2022-09-24T07:48:54.341Z,18.03
2022-09-24T07:51:20.830Z,18.04
2022-09-24T07:53:47.375Z,18.09
2022-09-24T07:56:13.745Z,18.41
2022-09-24T07:58:40.490Z,18.17
2022-09-24T08:01:07.251Z,18.20
2022-09-24T08:03:33.851Z,18.23
2022-09-24T08:06:02.058Z,18.57
2022-09-24T08:08:28.567Z,18.35
2022-09-24T08:10:55.129Z,18.67
2022-09-24T08:13:25.366Z,18.45
2022-09-24T08:16:00.645Z,18.53
2022-09-24T08:18:29.410Z,18.52
2022-09-24T08:20:55.926Z,18.57
2022-09-24T08:23:22.379Z,18.92
2022-09-24T08:25:49.131Z,18.68
2022-09-24T08:28:17.202Z,18.68
2022-09-24T08:30:44.277Z,18.70
2022-09-24T08:33:10.854Z,18.71
2022-09-24T08:35:40.152Z,19.06
2022-09-24T08:38:07.094Z,18.81
2022-09-24T08:40:39.693Z,18.88
2022-09-24T08:43:26.069Z,18.99
2022-09-24T08:46:16.237Z,18.94
2022-09-24T08:48:49.302Z,19.00
2022-09-24T08:51:19.237Z,19.02
2022-09-24T08:53:55.056Z,19.04
2022-09-24T08:56:27.246Z,19.15
2022-09-24T08:58:59.858Z,19.20
2022-09-24T09:01:41.294Z,19.31
2022-09-24T09:04:26.181Z,19.36
2022-09-24T09:07:08.032Z,19.38
2022-09-24T09:09:54.134Z,19.53
2022-09-24T09:12:40.816Z,19.57
2022-09-24T09:15:13.320Z,19.56
2022-09-24T09:17:47.286Z,19.57
2022-09-24T09:20:21.725Z,19.62
2022-09-24T09:22:51.311Z,19.62
2022-09-24T09:25:24.706Z,19.69
2022-09-24T09:28:05.271Z,19.76
2022-09-24T09:30:43.693Z,19.76
2022-09-24T09:33:20.725Z,19.78
2022-09-24T09:36:15.041Z,19.96
2022-09-24T09:38:58.243Z,19.95
2022-09-24T09:42:02.636Z,20.10
2022-09-24T09:44:30.918Z,20.07
2022-09-24T09:47:07.172Z,20.17
2022-09-24T09:49:38.631Z,20.21
2022-09-24T09:52:15.297Z,20.28
2022-09-24T09:54:42.127Z,20.28
2022-09-24T09:57:18.200Z,20.35
2022-09-24T09:59:53.625Z,20.42
2022-09-24T10:02:35.471Z,20.46
2022-09-24T10:05:04.293Z,20.38
2022-09-24T10:07:31.789Z,20.39
2022-09-24T10:10:26.137Z,20.55
2022-09-24T10:13:13.820Z,20.41
2022-09-24T10:15:56.710Z,20.49
2022-09-24T10:18:36.238Z,20.50
2022-09-24T10:21:12.076Z,20.49
2022-09-24T10:23:49.769Z,20.51
2022-09-24T10:26:16.465Z,20.47
2022-09-24T10:29:08.041Z,20.54
2022-09-24T10:31:37.907Z,20.55
2022-09-24T10:34:18.347Z,20.58
2022-09-24T10:37:05.036Z,20.69
2022-09-24T10:39:33.870Z,20.60
2022-09-24T10:42:00.401Z,20.94
2022-09-24T10:44:35.992Z,20.69
2022-09-24T10:47:04.643Z,20.59
2022-09-24T10:49:49.221Z,20.63
2022-09-24T10:52:52.713Z,20.66
2022-09-24T10:55:55.648Z,20.57
2022-09-24T10:58:28.086Z,20.48
2022-09-24T11:01:19.442Z,20.52
2022-09-24T11:04:10.537Z,20.52
2022-09-24T11:06:58.193Z,20.45
2022-09-24T11:09:43.945Z,20.42
2022-09-24T11:12:39.826Z,20.43
2022-09-24T11:15:21.983Z,20.36
2022-09-24T11:18:11.485Z,20.29
2022-09-24T11:20:42.005Z,20.29
2022-09-24T11:23:20.748Z,20.31
2022-09-24T11:25:47.270Z,20.27
2022-09-24T11:28:16.966Z,20.60
2022-09-24T11:31:05.110Z,20.35
2022-09-24T11:33:34.700Z,20.27
2022-09-24T11:36:10.298Z,20.33
2022-09-24T11:39:01.393Z,20.36
2022-09-24T11:41:49.830Z,20.33
2022-09-24T11:44:27.187Z,20.22
2022-09-24T11:47:32.921Z,20.37
2022-09-24T11:50:15.615Z,20.24
2022-09-24T11:52:48.090Z,20.25
2022-09-24T11:55:31.784Z,20.26
2022-09-24T11:58:18.058Z,20.30
2022-09-24T12:00:57.513Z,20.29
2022-09-24T12:03:35.147Z,20.22
2022-09-24T12:06:10.263Z,20.26
2022-09-24T12:08:44.233Z,20.29
2022-09-24T12:11:18.768Z,20.32
2022-09-24T12:13:52.322Z,20.33
2022-09-24T12:16:24.283Z,20.38
2022-09-24T12:19:24.131Z,20.50
2022-09-24T12:21:53.048Z,20.45
2022-09-24T12:24:52.733Z,20.64
2022-09-24T12:27:38.749Z,20.63
2022-09-24T12:30:40.200Z,20.61
2022-09-24T12:33:09.436Z,20.59
2022-09-24T12:35:42.730Z,20.60
2022-09-24T12:38:21.015Z,20.62
2022-09-24T12:41:11.996Z,20.71
2022-09-24T12:43:53.743Z,20.73
2022-09-24T12:46:24.763Z,20.65
2022-09-24T12:48:54.333Z,20.65
2022-09-24T12:51:22.726Z,20.65
2022-09-24T12:54:05.831Z,20.73
2022-09-24T12:56:32.706Z,20.66
2022-09-24T12:58:59.246Z,20.66
2022-09-24T13:01:25.838Z,21.02
2022-09-24T13:04:13.957Z,20.82
2022-09-24T13:06:41.549Z,20.70
2022-09-24T13:09:44.359Z,20.89
2022-09-24T13:12:14.468Z,20.72
2022-09-24T13:14:46.986Z,20.69
2022-09-24T13:17:15.842Z,20.67
2022-09-24T13:19:44.998Z,20.67
2022-09-24T13:22:23.085Z,20.73
2022-09-24T13:24:52.801Z,20.64
2022-09-24T13:27:37.841Z,20.66
2022-09-24T13:30:43.100Z,20.70
2022-09-24T13:33:12.662Z,20.62
2022-09-24T13:35:48.162Z,20.61
2022-09-24T13:38:14.906Z,20.54
2022-09-24T13:40:48.675Z,20.53
2022-09-24T13:43:25.314Z,20.52
2022-09-24T13:45:52.752Z,20.47
2022-09-24T13:48:33.527Z,20.50
2022-09-24T13:51:03.388Z,20.40
2022-09-24T13:53:32.342Z,20.39
2022-09-24T13:56:02.372Z,20.34
2022-09-24T13:58:38.783Z,20.32
2022-09-24T14:01:13.217Z,20.36
2022-09-24T14:03:41.364Z,20.25
2022-09-24T14:06:17.002Z,20.31
2022-09-24T14:08:46.318Z,20.20
2022-09-24T14:11:21.807Z,20.26
2022-09-24T14:13:48.390Z,20.15
2022-09-24T14:16:18.608Z,20.14
2022-09-24T14:18:45.977Z,20.12
2022-09-24T14:21:24.623Z,20.20
2022-09-24T14:23:57.290Z,20.15
2022-09-24T14:26:26.400Z,20.09
2022-09-24T14:28:54.199Z,20.09
2022-09-24T14:31:20.916Z,20.09
2022-09-24T14:33:47.575Z,20.07
2022-09-24T14:36:15.147Z,20.08
2022-09-24T14:38:53.902Z,20.16
2022-09-24T14:41:25.032Z,20.12
2022-09-24T14:43:56.287Z,20.12
2022-09-24T14:46:32.758Z,20.11
2022-09-24T14:49:18.814Z,20.15
2022-09-24T14:51:59.721Z,20.12
2022-09-24T14:54:36.952Z,20.03
2022-09-24T14:57:09.800Z,20.08
2022-09-24T14:59:38.062Z,20.02
2022-09-24T15:02:24.962Z,20.13
2022-09-24T15:04:55.466Z,20.04
2022-09-24T15:07:26.134Z,20.02
2022-09-24T15:10:01.105Z,20.01
2022-09-24T15:12:31.601Z,20.03
2022-09-24T15:15:04.117Z,20.03
2022-09-24T15:17:33.164Z,20.00
2022-09-24T15:20:00.408Z,19.97
2022-09-24T15:22:28.933Z,19.97
2022-09-24T15:25:01.856Z,19.95
2022-09-24T15:27:30.128Z,19.94
2022-09-24T15:29:59.644Z,19.91
2022-09-24T15:32:31.695Z,19.92
2022-09-24T15:34:58.364Z,19.83
2022-09-24T15:37:27.073Z,19.80
2022-09-24T15:39:57.508Z,19.80
2022-09-24T15:42:26.634Z,19.74
2022-09-24T15:44:54.744Z,19.69
2022-09-24T15:47:21.489Z,19.66
2022-09-24T15:49:48.090Z,19.62
2022-09-24T15:52:25.427Z,19.64
2022-09-24T15:54:53.237Z,19.57
2022-09-24T15:57:19.740Z,19.54
2022-09-24T15:59:46.165Z,19.89
2022-09-24T16:02:29.488Z,19.62
2022-09-24T16:05:02.709Z,19.50
2022-09-24T16:07:30.269Z,19.47
2022-09-24T16:09:56.626Z,19.81
2022-09-24T16:12:28.160Z,19.46
2022-09-24T16:14:59.133Z,19.41
2022-09-24T16:17:29.832Z,19.37
2022-09-24T16:19:56.381Z,19.34
2022-09-24T16:22:22.821Z,19.70
2022-09-24T16:24:49.373Z,19.35
2022-09-24T16:27:15.845Z,19.68
2022-09-24T16:29:42.385Z,19.31
2022-09-24T16:32:08.824Z,19.64
2022-09-24T16:34:35.364Z,19.26
2022-09-24T16:37:01.897Z,19.58
2022-09-24T16:39:28.421Z,19.21
2022-09-24T16:41:54.906Z,19.52
2022-09-24T16:44:21.422Z,19.15
2022-09-24T16:46:47.997Z,19.47
2022-09-24T16:49:14.523Z,19.11
2022-09-24T16:51:41.027Z,19.42
2022-09-24T16:54:07.700Z,19.07
2022-09-24T16:56:34.642Z,19.00
2022-09-24T16:59:01.153Z,18.97
2022-09-24T17:01:27.823Z,19.32
2022-09-24T17:03:56.213Z,18.98
2022-09-24T17:06:29.150Z,18.98
2022-09-24T17:09:19.108Z,18.87
2022-09-24T17:11:49.389Z,18.84
2022-09-24T17:14:17.692Z,18.81
2022-09-24T17:16:44.282Z,18.77
2022-09-24T17:19:11.861Z,19.14
2022-09-24T17:21:40.859Z,18.80
2022-09-24T17:24:07.962Z,18.72
2022-09-24T17:26:34.748Z,18.69
2022-09-24T17:29:01.571Z,18.66
2022-09-24T17:31:28.544Z,18.65
2022-09-24T17:33:56.570Z,18.64
2022-09-24T17:36:23.900Z,18.61
2022-09-24T17:38:51.963Z,18.59
2022-09-24T17:41:19.307Z,18.58
2022-09-24T17:43:45.795Z,18.56
2022-09-24T17:46:18.057Z,18.62
2022-09-24T17:48:46.164Z,18.54
2022-09-24T17:51:22.880Z,18.59
2022-09-24T17:53:51.704Z,18.54
2022-09-24T17:56:19.229Z,18.50
2022-09-24T17:58:49.947Z,18.49
2022-09-24T18:01:25.257Z,18.53
2022-09-24T18:03:57.831Z,18.51
2022-09-24T18:06:29.396Z,18.43
2022-09-24T18:09:00.029Z,18.43
2022-09-24T18:11:31.537Z,18.44
2022-09-24T18:14:01.392Z,18.38
2022-09-24T18:16:31.183Z,18.36
2022-09-24T18:19:02.134Z,18.36
2022-09-24T18:21:29.600Z,18.27
2022-09-24T18:23:58.120Z,18.23
2022-09-24T18:26:27.317Z,18.21
2022-09-24T18:29:01.576Z,18.22
2022-09-24T18:31:29.613Z,18.15
2022-09-24T18:34:06.199Z,18.14
2022-09-24T18:36:38.615Z,18.18
2022-09-24T18:39:06.959Z,18.09
2022-09-24T18:41:34.808Z,18.07
2022-09-24T18:44:01.857Z,18.05
2022-09-24T18:46:30.555Z,18.04
2022-09-24T18:48:58.704Z,18.04
2022-09-24T18:51:28.340Z,18.04
2022-09-24T18:53:57.656Z,18.04
2022-09-24T18:56:24.612Z,18.01
2022-09-24T18:59:05.906Z,18.06
2022-09-24T19:01:35.422Z,17.97
2022-09-24T19:04:02.258Z,17.95
2022-09-24T19:06:30.598Z,17.92
2022-09-24T19:08:57.277Z,17.88
2022-09-24T19:11:23.925Z,17.85
2022-09-24T19:13:51.668Z,18.20
2022-09-24T19:16:19.578Z,18.22
2022-09-24T19:18:47.416Z,17.87
2022-09-24T19:21:15.664Z,17.79
2022-09-24T19:23:47.819Z,17.77
2022-09-24T19:26:20.600Z,17.75
2022-09-24T19:28:50.965Z,17.72
2022-09-24T19:31:20.252Z,17.71
2022-09-24T19:33:47.108Z,17.67
2022-09-24T19:36:13.845Z,17.66
2022-09-24T19:38:41.274Z,18.01
2022-09-24T19:41:13.580Z,17.71
2022-09-24T19:43:42.879Z,17.64
2022-09-24T19:46:12.086Z,17.62
2022-09-24T19:48:40.435Z,17.59
2022-09-24T19:51:12.465Z,17.58
2022-09-24T19:53:39.143Z,17.54
2022-09-24T19:56:07.322Z,17.53
2022-09-24T19:58:34.479Z,17.50
2022-09-24T20:01:06.592Z,17.55
2022-09-24T20:03:34.819Z,17.48
2022-09-24T20:06:07.648Z,17.53
2022-09-24T20:08:34.206Z,17.45
2022-09-24T20:11:05.056Z,17.79
2022-09-24T20:13:32.356Z,17.44
2022-09-24T20:16:01.762Z,17.36
2022-09-24T20:18:28.757Z,17.35
2022-09-24T20:20:55.536Z,17.29
2022-09-24T20:23:23.583Z,17.28
2022-09-24T20:26:13.516Z,17.31
2022-09-24T20:28:40.374Z,17.25
2022-09-24T20:31:11.411Z,17.29
2022-09-24T20:33:40.339Z,17.22
2022-09-24T20:36:15.192Z,17.22
2022-09-24T20:38:45.050Z,17.23
2022-09-24T20:41:17.600Z,17.26
2022-09-24T20:43:45.563Z,17.21
2022-09-24T20:46:32.373Z,17.34
2022-09-24T20:49:00.227Z,17.20
2022-09-24T20:51:33.709Z,17.22
2022-09-24T20:54:01.235Z,17.14
2022-09-24T20:56:30.643Z,17.13
2022-09-24T20:58:57.878Z,17.11
2022-09-24T21:01:25.031Z,17.10
2022-09-24T21:03:52.891Z,17.09
2022-09-24T21:06:23.072Z,17.08
2022-09-24T21:08:49.968Z,17.07
2022-09-24T21:11:22.692Z,17.10
2022-09-24T21:13:52.244Z,17.05
2022-09-24T21:16:24.429Z,17.02
2022-09-24T21:18:54.423Z,16.98
2022-09-24T21:21:24.150Z,16.99
2022-09-24T21:23:53.345Z,16.97
2022-09-24T21:26:31.168Z,16.95
2022-09-24T21:29:08.207Z,16.97
2022-09-24T21:31:35.980Z,16.88
2022-09-24T21:34:03.525Z,16.83
2022-09-24T21:36:32.397Z,16.83
2022-09-24T21:39:09.088Z,16.87
2022-09-24T21:41:40.290Z,16.80
2022-09-24T21:44:09.137Z,16.74
2022-09-24T21:46:35.856Z,16.73
2022-09-24T21:49:02.542Z,17.05
2022-09-24T21:51:31.199Z,16.71
2022-09-24T21:54:01.141Z,16.69
2022-09-24T21:56:28.905Z,16.67
2022-09-24T21:58:55.910Z,16.67
2022-09-24T22:01:28.266Z,16.73
2022-09-24T22:03:56.808Z,16.74
2022-09-24T22:06:27.165Z,16.78
2022-09-24T22:08:56.090Z,16.81
2022-09-24T22:11:23.349Z,16.85
2022-09-24T22:13:49.819Z,16.88
2022-09-24T22:16:16.382Z,16.93
2022-09-24T22:18:42.783Z,17.26
2022-09-24T22:21:12.391Z,16.99
2022-09-24T22:23:40.089Z,16.96
2022-09-24T22:26:09.066Z,16.97
2022-09-24T22:28:38.040Z,16.97
2022-09-24T22:31:11.081Z,17.07
2022-09-24T22:33:56.783Z,17.04
2022-09-24T22:36:23.447Z,17.07
2022-09-24T22:38:53.325Z,17.43
2022-09-24T22:41:19.836Z,17.19
2022-09-24T22:43:46.375Z,17.21
2022-09-24T22:46:14.351Z,17.22
2022-09-24T22:48:40.881Z,17.22
2022-09-24T22:51:08.714Z,17.25
2022-09-24T22:53:36.987Z,17.27
2022-09-24T22:56:11.222Z,17.33
2022-09-24T22:58:41.313Z,17.28
2022-09-24T23:01:14.472Z,17.34
